createdAt,value
2022-07-27T00:01:40.696Z,100825.69
2022-07-27T00:04:17.128Z,100830.16
2022-07-27T00:06:44.438Z,100818.59
2022-07-27T00:09:11.818Z,100822.16
2022-07-27T00:11:38.794Z,100830.16
2022-07-27T00:14:05.392Z,100835.50
2022-07-27T00:16:32.061Z,100831.97
2022-07-27T00:18:58.567Z,100831.94
2022-07-27T00:21:26.649Z,100829.28
2022-07-27T00:23:54.447Z,100834.63
2022-07-27T00:26:21.394Z,100829.28
2022-07-27T00:28:48.576Z,100829.31
2022-07-27T00:31:15.594Z,100832.84
2022-07-27T00:33:42.147Z,100822.19
2022-07-27T00:36:09.053Z,100830.19
2022-07-27T00:38:35.618Z,100831.06
2022-07-27T00:41:02.085Z,100830.16
2022-07-27T00:43:28.627Z,100835.50
2022-07-27T00:45:55.179Z,100829.31
2022-07-27T00:48:21.717Z,100833.72
2022-07-27T00:50:48.508Z,100838.16
2022-07-27T00:53:15.635Z,100835.50
2022-07-27T00:55:42.407Z,100832.81
2022-07-27T00:58:09.033Z,100834.63
2022-07-27T01:00:37.555Z,100831.97
2022-07-27T01:03:09.302Z,100831.97
2022-07-27T01:05:42.585Z,100824.84
2022-07-27T01:08:12.442Z,100836.38
2022-07-27T01:10:40.241Z,100827.50
2022-07-27T01:13:06.768Z,100834.63
2022-07-27T01:15:40.131Z,100833.72
2022-07-27T01:18:11.661Z,100831.06
2022-07-27T01:20:40.389Z,100828.41
2022-07-27T01:23:06.912Z,100839.94
2022-07-27T01:25:34.229Z,100842.59
2022-07-27T01:28:00.978Z,100838.19
2022-07-27T01:30:27.601Z,100835.50
2022-07-27T01:33:04.568Z,100842.59
2022-07-27T01:35:32.192Z,100840.81
2022-07-27T01:38:00.125Z,100839.06
2022-07-27T01:40:27.144Z,100834.59
2022-07-27T01:42:53.843Z,100829.28
2022-07-27T01:45:20.419Z,100835.50
2022-07-27T01:47:47.141Z,100839.03
2022-07-27T01:50:13.822Z,100838.16
2022-07-27T01:52:40.402Z,100830.16
2022-07-27T01:55:10.121Z,100833.75
2022-07-27T01:57:37.514Z,100834.59
2022-07-27T02:00:13.680Z,100833.72
2022-07-27T02:02:41.433Z,100839.91
2022-07-27T02:05:11.851Z,100837.25
2022-07-27T02:07:41.540Z,100839.91
2022-07-27T02:10:09.830Z,100842.56
2022-07-27T02:12:36.363Z,100839.03
2022-07-27T02:15:15.072Z,100833.63
2022-07-27T02:17:43.524Z,100833.63
2022-07-27T02:20:11.134Z,100835.38
2022-07-27T02:22:37.724Z,100834.50
2022-07-27T02:25:05.860Z,100829.16
2022-07-27T02:27:32.522Z,100824.72
2022-07-27T02:29:59.574Z,100832.69
2022-07-27T02:32:26.484Z,100825.63
2022-07-27T02:34:53.275Z,100828.25
2022-07-27T02:37:19.839Z,100830.03
2022-07-27T02:39:46.392Z,100834.47
2022-07-27T02:42:13.203Z,100829.16
2022-07-27T02:44:40.120Z,100835.34
2022-07-27T02:47:06.850Z,100831.81
2022-07-27T02:49:33.539Z,100834.47
2022-07-27T02:52:00.146Z,100830.00
2022-07-27T02:54:26.771Z,100824.66
2022-07-27T02:56:54.884Z,100831.75
2022-07-27T02:59:23.119Z,100825.53
2022-07-27T03:01:50.018Z,100833.47
2022-07-27T03:04:17.261Z,100834.34
2022-07-27T03:06:44.325Z,100832.56
2022-07-27T03:09:11.546Z,100837.88
2022-07-27T03:11:38.667Z,100836.09
2022-07-27T03:14:05.324Z,100835.19
2022-07-27T03:16:31.906Z,100837.84
2022-07-27T03:18:58.584Z,100834.28
2022-07-27T03:21:25.578Z,100836.94
2022-07-27T03:23:52.246Z,100845.75
2022-07-27T03:26:19.224Z,100843.97
2022-07-27T03:28:45.839Z,100845.72
2022-07-27T03:31:12.458Z,100849.22
2022-07-27T03:33:39.134Z,100845.69
2022-07-27T03:36:05.820Z,100846.56
2022-07-27T03:38:32.369Z,100849.22
2022-07-27T03:40:59.868Z,100845.72
2022-07-27T03:43:26.402Z,100849.28
2022-07-27T03:45:53.112Z,100857.25
2022-07-27T03:48:19.615Z,100851.06
2022-07-27T03:50:46.245Z,100859.97
2022-07-27T03:53:12.726Z,100869.72
2022-07-27T03:55:39.277Z,100867.97
2022-07-27T03:58:05.861Z,100857.34
2022-07-27T04:00:32.401Z,100862.69
2022-07-27T04:02:58.990Z,100862.75
2022-07-27T04:05:29.579Z,100861.00
2022-07-27T04:07:56.750Z,100865.44
2022-07-27T04:10:25.013Z,100853.94
2022-07-27T04:12:56.475Z,100860.16
2022-07-27T04:15:23.126Z,100862.81
2022-07-27T04:17:55.652Z,100853.97
2022-07-27T04:20:24.473Z,100862.00
2022-07-27T04:22:51.120Z,100856.66
2022-07-27T04:25:17.654Z,100856.69
2022-07-27T04:27:44.301Z,100870.91
2022-07-27T04:30:11.410Z,100860.28
2022-07-27T04:32:38.323Z,100855.84
2022-07-27T04:35:07.418Z,100854.09
2022-07-27T04:37:34.952Z,100855.88
2022-07-27T04:40:02.101Z,100862.09
2022-07-27T04:42:29.841Z,100854.09
2022-07-27T04:44:56.955Z,100859.44
2022-07-27T04:47:23.494Z,100858.56
2022-07-27T04:49:50.182Z,100866.53
2022-07-27T04:52:17.145Z,100858.56
2022-07-27T04:54:44.307Z,100860.34
2022-07-27T04:57:10.834Z,100857.66
2022-07-27T04:59:37.525Z,100861.22
2022-07-27T05:02:04.348Z,100855.91
2022-07-27T05:04:30.967Z,100860.34
2022-07-27T05:06:57.716Z,100864.78
2022-07-27T05:09:24.489Z,100855.03
2022-07-27T05:11:52.166Z,100858.59
2022-07-27T05:14:21.072Z,100863.91
2022-07-27T05:16:48.493Z,100865.66
2022-07-27T05:19:15.622Z,100864.78
2022-07-27T05:21:42.478Z,100867.47
2022-07-27T05:24:10.270Z,100871.00
2022-07-27T05:26:37.701Z,100878.13
2022-07-27T05:29:04.447Z,100879.00
2022-07-27T05:31:31.203Z,100874.56
2022-07-27T05:33:58.597Z,100886.13
2022-07-27T05:36:25.617Z,100890.53
2022-07-27T05:38:52.169Z,100890.56
2022-07-27T05:41:26.067Z,100893.22
2022-07-27T05:43:54.416Z,100897.66
2022-07-27T05:46:21.535Z,100903.00
2022-07-27T05:48:48.156Z,100904.75
2022-07-27T05:51:14.742Z,100910.97
2022-07-27T05:53:43.880Z,100910.97
2022-07-27T05:56:10.559Z,100915.41
2022-07-27T05:58:37.482Z,100917.19
2022-07-27T06:01:04.157Z,100914.50
2022-07-27T06:03:31.304Z,100923.41
2022-07-27T06:06:16.596Z,100923.38
2022-07-27T06:08:43.483Z,100931.41
2022-07-27T06:11:10.028Z,100926.94
2022-07-27T06:13:37.099Z,100930.53
2022-07-27T06:16:09.537Z,100936.72
2022-07-27T06:18:39.011Z,100941.16
2022-07-27T06:21:05.647Z,100939.41
2022-07-27T06:23:32.328Z,100934.06
2022-07-27T06:25:59.057Z,100937.66
2022-07-27T06:28:25.801Z,100938.50
2022-07-27T06:30:53.604Z,100942.03
2022-07-27T06:33:28.921Z,100939.34
2022-07-27T06:35:57.562Z,100938.41
2022-07-27T06:38:25.522Z,100936.66
2022-07-27T06:40:53.354Z,100942.88
2022-07-27T06:43:21.455Z,100951.78
2022-07-27T06:45:49.118Z,100942.88
2022-07-27T06:48:16.952Z,100955.31
2022-07-27T06:50:43.855Z,100948.19
2022-07-27T06:53:10.435Z,100950.81
2022-07-27T06:55:39.121Z,100945.44
2022-07-27T06:58:05.654Z,100950.75
2022-07-27T07:00:32.274Z,100941.81
2022-07-27T07:03:02.923Z,100941.81
2022-07-27T07:05:30.695Z,100941.81
2022-07-27T07:07:57.818Z,100938.22
2022-07-27T07:10:26.018Z,100939.09
2022-07-27T07:12:55.923Z,100938.22
2022-07-27T07:15:24.731Z,100941.75
2022-07-27T07:17:51.219Z,100934.53
2022-07-27T07:20:17.792Z,100931.75
2022-07-27T07:22:44.401Z,100937.00
2022-07-27T07:25:11.006Z,100930.63
2022-07-27T07:27:37.933Z,100930.44
2022-07-27T07:30:05.474Z,100926.75
2022-07-27T07:32:33.679Z,100926.59
2022-07-27T07:35:01.410Z,100929.16
2022-07-27T07:37:33.447Z,100928.03
2022-07-27T07:40:24.905Z,100934.91
2022-07-27T07:42:48.905Z,100925.97
2022-07-27T07:45:16.217Z,100932.25
2022-07-27T07:47:42.742Z,100925.19
2022-07-27T07:50:09.851Z,100929.56
2022-07-27T07:52:37.251Z,100936.75
2022-07-27T07:55:04.644Z,100934.91
2022-07-27T07:57:31.119Z,100929.34
2022-07-27T07:59:57.626Z,100934.50
2022-07-27T08:02:24.391Z,100938.84
2022-07-27T08:04:51.120Z,100928.97
2022-07-27T08:07:17.785Z,100931.72
2022-07-27T08:09:44.548Z,100947.78
2022-07-27T08:12:11.198Z,100954.09
2022-07-27T08:14:37.746Z,100947.13
2022-07-27T08:17:05.944Z,100942.69
2022-07-27T08:19:35.421Z,100944.50
2022-07-27T08:22:06.240Z,100940.78
2022-07-27T08:24:32.837Z,100937.06
2022-07-27T08:26:59.560Z,100942.41
2022-07-27T08:29:35.969Z,100940.44
2022-07-27T08:32:05.960Z,100935.75
2022-07-27T08:34:32.975Z,100935.50
2022-07-27T08:36:59.564Z,100927.25
2022-07-27T08:40:06.201Z,100941.47
2022-07-27T08:42:12.773Z,100929.19
2022-07-27T08:44:41.235Z,100933.09
2022-07-27T08:47:11.131Z,100932.25
2022-07-27T08:49:43.477Z,100930.06
2022-07-27T08:52:11.634Z,100933.97
2022-07-27T08:54:39.792Z,100932.81
2022-07-27T08:57:10.416Z,100928.31
2022-07-27T08:59:37.666Z,100927.63
2022-07-27T09:02:09.055Z,100927.97
2022-07-27T09:04:35.913Z,100942.28
2022-07-27T09:07:02.518Z,100939.28
2022-07-27T09:09:42.562Z,100938.84
2022-07-27T09:12:10.654Z,100935.91
2022-07-27T09:14:39.860Z,100933.16
2022-07-27T09:17:48.004Z,100929.84
2022-07-27T09:20:19.895Z,100938.06
2022-07-27T09:22:52.439Z,100938.44
2022-07-27T09:25:52.635Z,100943.53
2022-07-27T09:28:29.029Z,100942.13
2022-07-27T09:30:55.670Z,100933.22
2022-07-27T09:33:22.395Z,100934.06
2022-07-27T09:35:59.707Z,100932.03
2022-07-27T09:38:26.828Z,100914.59
2022-07-27T09:41:04.146Z,100928.19
2022-07-27T09:46:29.646Z,100914.97
2022-07-27T09:48:56.579Z,100911.41
2022-07-27T09:54:13.033Z,100919.66
2022-07-27T09:56:40.265Z,100919.94
2022-07-27T09:59:06.820Z,100917.44
2022-07-27T10:01:35.662Z,100910.00
2022-07-27T10:04:05.859Z,100901.31
2022-07-27T10:06:47.686Z,100895.50
2022-07-27T10:09:20.832Z,100909.84
2022-07-27T10:11:48.557Z,100920.78
2022-07-27T10:14:16.316Z,100915.09
2022-07-27T10:16:48.713Z,100908.69
2022-07-27T10:19:20.097Z,100911.34
2022-07-27T10:21:48.186Z,100918.88
2022-07-27T10:24:32.171Z,100912.75
2022-07-27T10:26:59.106Z,100916.31
2022-07-27T10:29:25.931Z,100905.97
2022-07-27T10:31:52.518Z,100911.31
2022-07-27T10:34:38.536Z,100908.59
2022-07-27T10:37:13.575Z,100892.69
2022-07-27T10:40:20.491Z,100902.06
2022-07-27T10:42:53.646Z,100909.34
2022-07-27T10:45:22.103Z,100911.59
2022-07-27T10:47:52.905Z,100902.81
2022-07-27T10:50:20.907Z,100903.41
2022-07-27T10:53:03.276Z,100899.88
2022-07-27T10:55:30.175Z,100908.38
2022-07-27T10:58:08.895Z,100902.91
2022-07-27T11:00:56.754Z,100899.56
2022-07-27T11:03:27.023Z,100896.47
2022-07-27T11:06:04.775Z,100896.94
2022-07-27T11:08:47.479Z,100893.09
2022-07-27T11:11:20.028Z,100896.06
2022-07-27T11:13:47.351Z,100899.06
2022-07-27T11:16:23.899Z,100902.81
2022-07-27T11:19:02.494Z,100910.19
2022-07-27T11:21:37.838Z,100905.91
2022-07-27T11:24:12.021Z,100904.50
2022-07-27T11:26:41.804Z,100887.84
2022-07-27T11:29:10.967Z,100895.00
2022-07-27T11:31:54.750Z,100891.16
2022-07-27T11:34:30.366Z,100889.06
2022-07-27T11:37:03.684Z,100898.03
2022-07-27T11:42:21.022Z,100886.81
2022-07-27T11:44:48.676Z,100873.09
2022-07-27T11:47:19.834Z,100879.56
2022-07-27T11:49:46.866Z,100876.41
2022-07-27T11:52:17.838Z,100888.44
2022-07-27T11:54:51.291Z,100888.84
2022-07-27T11:57:19.025Z,100890.38
2022-07-27T11:59:46.202Z,100880.31
2022-07-27T12:02:17.800Z,100886.59
2022-07-27T12:04:47.244Z,100887.13
2022-07-27T12:07:17.710Z,100874.22
2022-07-27T12:09:48.143Z,100884.53
2022-07-27T12:12:23.596Z,100867.16
2022-07-27T12:14:51.982Z,100875.72
2022-07-27T12:17:35.633Z,100873.81
2022-07-27T12:20:08.384Z,100877.56
2022-07-27T12:22:46.575Z,100878.47
2022-07-27T12:25:19.104Z,100878.66
2022-07-27T12:28:01.887Z,100885.16
2022-07-27T12:30:33.037Z,100884.84
2022-07-27T12:33:00.990Z,100883.41
2022-07-27T12:35:48.030Z,100874.50
2022-07-27T12:38:15.157Z,100904.31
2022-07-27T12:40:50.859Z,100889.28
2022-07-27T12:43:20.113Z,100892.88
2022-07-27T12:45:48.699Z,100890.72
2022-07-27T12:48:25.438Z,100883.75
2022-07-27T12:51:04.722Z,100885.75
2022-07-27T12:53:32.855Z,100881.25
2022-07-27T12:56:02.060Z,100882.38
2022-07-27T12:58:28.566Z,100886.50
2022-07-27T13:00:55.189Z,100883.69
2022-07-27T13:03:21.956Z,100880.84
2022-07-27T13:05:48.860Z,100875.59
2022-07-27T13:08:16.410Z,100874.59
2022-07-27T13:10:44.450Z,100875.56
2022-07-27T13:13:11.485Z,100892.25
2022-07-27T13:15:38.062Z,100885.06
2022-07-27T13:18:04.607Z,100878.69
2022-07-27T13:20:31.585Z,100878.94
2022-07-27T13:22:58.305Z,100868.47
2022-07-27T13:25:24.947Z,100885.09
2022-07-27T13:27:51.543Z,100866.84
2022-07-27T13:30:19.018Z,100879.88
2022-07-27T13:32:48.770Z,100880.38
2022-07-27T13:35:17.029Z,100874.81
2022-07-27T13:37:44.685Z,100875.81
2022-07-27T13:40:11.902Z,100880.63
2022-07-27T13:42:38.504Z,100893.19
2022-07-27T13:45:10.232Z,100885.53
2022-07-27T13:47:38.480Z,100885.34
2022-07-27T13:50:05.589Z,100889.84
2022-07-27T13:52:32.268Z,100899.97
2022-07-27T13:54:58.812Z,100894.38
2022-07-27T13:57:25.600Z,100889.53
2022-07-27T13:59:52.700Z,100894.94
2022-07-27T14:02:23.051Z,100893.38
2022-07-27T14:04:51.775Z,100893.13
2022-07-27T14:07:18.434Z,100894.63
2022-07-27T14:10:03.407Z,100891.31
2022-07-27T14:12:29.984Z,100889.06
2022-07-27T14:14:56.573Z,100886.97
2022-07-27T14:17:23.282Z,100883.72
2022-07-27T14:19:49.924Z,100887.53
2022-07-27T14:22:16.623Z,100882.75
2022-07-27T14:24:43.242Z,100882.94
2022-07-27T14:27:09.789Z,100884.78
2022-07-27T14:29:36.293Z,100877.53
2022-07-27T14:32:03.135Z,100880.56
2022-07-27T14:34:29.725Z,100878.59
2022-07-27T14:36:56.270Z,100877.84
2022-07-27T14:39:22.765Z,100872.47
2022-07-27T14:41:49.567Z,100880.28
2022-07-27T14:44:18.266Z,100875.44
2022-07-27T14:46:46.295Z,100879.94
2022-07-27T14:49:14.588Z,100881.28
2022-07-27T14:51:42.791Z,100878.19
2022-07-27T14:54:09.348Z,100872.16
2022-07-27T14:56:36.638Z,100878.47
2022-07-27T14:59:03.791Z,100876.88
2022-07-27T15:01:30.398Z,100879.56
2022-07-27T15:03:56.954Z,100872.13
2022-07-27T15:06:23.519Z,100875.06
2022-07-27T15:08:50.160Z,100876.94
2022-07-27T15:11:16.741Z,100873.59
2022-07-27T15:13:43.283Z,100887.13
2022-07-27T15:16:11.275Z,100885.34
2022-07-27T15:18:39.135Z,100878.88
2022-07-27T15:21:12.442Z,100879.78
2022-07-27T15:23:43.737Z,100879.38
2022-07-27T15:26:11.642Z,100878.38
2022-07-27T15:28:39.190Z,100876.16
2022-07-27T15:31:06.075Z,100882.72
2022-07-27T15:33:32.767Z,100873.28
2022-07-27T15:35:59.384Z,100879.88
2022-07-27T15:38:25.980Z,100883.16
2022-07-27T15:40:52.566Z,100881.50
2022-07-27T15:43:19.859Z,100868.72
2022-07-27T15:45:49.575Z,100870.50
2022-07-27T15:48:19.428Z,100870.72
2022-07-27T15:50:49.072Z,100866.16
2022-07-27T15:53:17.049Z,100876.09
2022-07-27T15:55:44.688Z,100872.47
2022-07-27T15:58:13.898Z,100869.31
2022-07-27T16:00:41.584Z,100882.94
2022-07-27T16:03:12.188Z,100874.88
2022-07-27T16:05:40.476Z,100872.81
2022-07-27T16:08:09.681Z,100876.19
2022-07-27T16:10:37.935Z,100874.94
2022-07-27T16:13:05.591Z,100872.63
2022-07-27T16:15:52.454Z,100868.47
2022-07-27T16:18:19.137Z,100867.91
2022-07-27T16:20:45.729Z,100876.91
2022-07-27T16:23:18.218Z,100865.03
2022-07-27T16:26:04.109Z,100869.09
2022-07-27T16:28:33.547Z,100869.28
2022-07-27T16:31:00.150Z,100870.34
2022-07-27T16:33:26.669Z,100871.19
2022-07-27T16:35:53.215Z,100866.50
2022-07-27T16:38:19.823Z,100867.09
2022-07-27T16:40:47.087Z,100869.69
2022-07-27T16:43:13.589Z,100870.41
2022-07-27T16:45:40.316Z,100866.50
2022-07-27T16:48:06.935Z,100868.03
2022-07-27T16:50:33.609Z,100870.44
2022-07-27T16:53:01.347Z,100868.81
2022-07-27T16:55:28.336Z,100870.06
2022-07-27T16:57:55.856Z,100870.34
2022-07-27T17:00:22.849Z,100874.94
2022-07-27T17:02:49.473Z,100868.59
2022-07-27T17:05:16.041Z,100874.72
2022-07-27T17:07:43.082Z,100877.88
2022-07-27T17:10:10.016Z,100877.22
2022-07-27T17:12:39.114Z,100873.19
2022-07-27T17:15:07.092Z,100868.53
2022-07-27T17:17:34.520Z,100864.03
2022-07-27T17:20:01.369Z,100864.41
2022-07-27T17:22:27.978Z,100870.25
2022-07-27T17:24:54.638Z,100869.66
2022-07-27T17:27:22.031Z,100863.69
2022-07-27T17:29:49.514Z,100866.75
2022-07-27T17:32:16.413Z,100868.00
2022-07-27T17:34:45.357Z,100874.66
2022-07-27T17:37:12.761Z,100870.59
2022-07-27T17:39:39.559Z,100865.50
2022-07-27T17:42:06.737Z,100865.03
2022-07-27T17:44:34.020Z,100865.69
2022-07-27T17:47:01.814Z,100868.97
2022-07-27T17:49:28.607Z,100869.41
2022-07-27T17:51:55.373Z,100867.88
2022-07-27T17:54:23.906Z,100864.50
2022-07-27T17:56:50.548Z,100869.09
2022-07-27T18:02:04.910Z,100869.47
2022-07-27T18:04:35.620Z,100867.81
2022-07-27T18:07:05.421Z,100877.81
2022-07-27T18:09:31.978Z,100869.84
2022-07-27T18:11:58.537Z,100872.53
2022-07-27T18:14:25.078Z,100873.34
2022-07-27T18:16:51.680Z,100877.69
2022-07-27T18:19:19.217Z,100872.38
2022-07-27T18:21:45.779Z,100867.47
2022-07-27T18:24:12.254Z,100860.09
2022-07-27T18:26:38.974Z,100872.38
2022-07-27T18:29:05.732Z,100875.06
2022-07-27T18:31:32.598Z,100868.78
2022-07-27T18:33:59.344Z,100868.78
2022-07-27T18:36:26.253Z,100872.63
2022-07-27T18:38:52.794Z,100873.53
2022-07-27T18:41:19.494Z,100870.75
2022-07-27T18:43:51.205Z,100871.50
2022-07-27T18:46:22.349Z,100872.16
2022-07-27T18:48:49.442Z,100877.13
2022-07-27T18:51:16.629Z,100873.97
2022-07-27T18:53:44.116Z,100877.97
2022-07-27T18:56:10.906Z,100885.53
2022-07-27T18:58:37.612Z,100886.78
2022-07-27T19:01:04.394Z,100890.69
2022-07-27T19:03:31.421Z,100891.91
2022-07-27T19:05:58.853Z,100894.91
2022-07-27T19:08:25.421Z,100904.09
2022-07-27T19:10:52.470Z,100897.22
2022-07-27T19:13:19.115Z,100904.59
2022-07-27T19:15:45.826Z,100903.91
2022-07-27T19:18:12.605Z,100911.34
2022-07-27T19:20:39.120Z,100905.31
2022-07-27T19:23:06.948Z,100910.88
2022-07-27T19:25:34.107Z,100912.84
2022-07-27T19:28:02.807Z,100914.78
2022-07-27T19:30:29.702Z,100918.53
2022-07-27T19:32:56.515Z,100920.41
2022-07-27T19:35:23.363Z,100921.47
2022-07-27T19:37:49.916Z,100914.50
2022-07-27T19:43:06.015Z,100938.91
2022-07-27T19:45:33.360Z,100928.34
2022-07-27T19:48:01.672Z,100934.72
2022-07-27T19:50:29.033Z,100933.94
2022-07-27T19:52:55.574Z,100942.91
2022-07-27T19:55:22.106Z,100944.75
2022-07-27T19:57:48.673Z,100948.41
2022-07-27T20:00:15.625Z,100947.59
2022-07-27T20:02:42.269Z,100956.53
2022-07-27T20:05:09.201Z,100957.47
2022-07-27T20:07:37.162Z,100950.34
2022-07-27T20:10:05.712Z,100956.63
2022-07-27T20:12:32.788Z,100961.09
2022-07-27T20:15:00.374Z,100961.16
2022-07-27T20:17:26.889Z,100966.50
2022-07-27T20:19:53.574Z,100963.88
2022-07-27T20:22:20.327Z,100964.81
2022-07-27T20:24:46.915Z,100967.50
2022-07-27T20:27:13.662Z,100968.41
2022-07-27T20:29:40.355Z,100973.78
2022-07-27T20:32:07.711Z,100974.69
2022-07-27T20:34:34.370Z,100986.28
2022-07-27T20:37:01.104Z,100970.28
2022-07-27T20:39:27.721Z,100980.06
2022-07-27T20:41:54.523Z,100981.84
2022-07-27T20:44:21.226Z,100981.84
2022-07-27T20:46:48.152Z,100980.13
2022-07-27T20:49:15.209Z,100981.91
2022-07-27T20:51:42.193Z,100984.59
2022-07-27T20:54:08.743Z,100991.75
2022-07-27T20:56:35.425Z,100989.97
2022-07-27T20:59:02.092Z,101004.22
2022-07-27T21:01:34.393Z,100998.00
2022-07-27T21:04:01.173Z,100998.00
2022-07-27T21:06:27.944Z,100999.78
2022-07-27T21:08:54.491Z,101003.34
2022-07-27T21:11:21.005Z,101004.25
2022-07-27T21:13:47.793Z,101006.94
2022-07-27T21:16:14.527Z,101012.28
2022-07-27T21:18:41.195Z,101014.06
2022-07-27T21:21:07.819Z,101014.94
2022-07-27T21:23:53.133Z,101020.28
2022-07-27T21:26:19.848Z,101015.81
2022-07-27T21:28:47.973Z,101029.19
2022-07-27T21:31:14.592Z,101023.81
2022-07-27T21:33:41.132Z,101029.16
2022-07-27T21:36:07.972Z,101030.06
2022-07-27T21:38:34.769Z,101026.50
2022-07-27T21:41:01.397Z,101032.66
2022-07-27T21:43:27.905Z,101032.69
2022-07-27T21:45:54.497Z,101031.81
2022-07-27T21:48:21.046Z,101036.25
2022-07-27T21:50:47.631Z,101030.88
2022-07-27T21:53:14.440Z,101040.66
2022-07-27T21:55:41.066Z,101029.09
2022-07-27T21:58:08.412Z,101036.22
2022-07-27T22:00:34.963Z,101037.94
2022-07-27T22:03:01.588Z,101046.84
2022-07-27T22:05:28.099Z,101044.16
2022-07-27T22:07:54.592Z,101048.59
2022-07-27T22:10:21.169Z,101044.13
2022-07-27T22:12:47.693Z,101044.13
2022-07-27T22:15:14.193Z,101045.88
2022-07-27T22:17:49.875Z,101038.75
2022-07-27T22:20:18.589Z,101040.53
2022-07-27T22:22:45.565Z,101041.41
2022-07-27T22:25:12.065Z,101040.50
2022-07-27T22:27:38.737Z,101046.69
2022-07-27T22:30:06.153Z,101050.19
2022-07-27T22:32:32.751Z,101055.53
2022-07-27T22:34:59.271Z,101042.16
2022-07-27T22:37:25.969Z,101051.00
2022-07-27T22:39:52.863Z,101046.56
2022-07-27T22:42:19.447Z,101049.22
2022-07-27T22:44:45.917Z,101058.00
2022-07-27T22:47:12.533Z,101050.91
2022-07-27T22:49:39.279Z,101053.53
2022-07-27T22:52:06.273Z,101058.84
2022-07-27T22:54:37.615Z,101055.28
2022-07-27T22:57:05.874Z,101065.88
2022-07-27T22:59:33.422Z,101066.75
2022-07-27T23:02:00.366Z,101063.16
2022-07-27T23:04:27.009Z,101057.84
2022-07-27T23:06:53.583Z,101057.81
2022-07-27T23:09:20.125Z,101063.97
2022-07-27T23:11:46.655Z,101062.19
2022-07-27T23:14:13.577Z,101056.84
2022-07-27T23:16:41.951Z,101059.44
2022-07-27T23:19:09.126Z,101058.53
2022-07-27T23:21:37.379Z,101061.13
2022-07-27T23:24:04.877Z,101061.13
2022-07-27T23:26:31.672Z,101060.19
2022-07-27T23:28:58.320Z,101055.72
2022-07-27T23:31:25.972Z,101063.63
2022-07-27T23:33:52.629Z,101060.03
2022-07-27T23:36:19.152Z,101067.09
2022-07-27T23:38:45.804Z,101065.25
2022-07-27T23:41:12.576Z,101065.19
2022-07-27T23:43:39.228Z,101053.63
2022-07-27T23:46:06.826Z,101058.00
2022-07-27T23:48:33.574Z,101070.31
2022-07-27T23:51:00.118Z,101065.78
2022-07-27T23:53:28.354Z,101064.84
2022-07-27T23:55:55.010Z,101073.66
2022-07-27T23:58:21.540Z,101074.47
